createdAt,value
2018-01-27T00:01:18.696Z,21.80
2018-01-27T00:03:46.208Z,19.53
2018-01-27T00:06:13.749Z,19.57
2018-01-27T00:08:41.267Z,19.23
2018-01-27T00:11:08.815Z,19.50
2018-01-27T00:13:36.322Z,19.20
2018-01-27T00:16:03.855Z,18.93
2018-01-27T00:18:31.363Z,19.40
2018-01-27T00:20:58.899Z,20.60
2018-01-27T00:23:26.408Z,20.10
2018-01-27T00:25:54.663Z,19.50
2018-01-27T00:28:22.211Z,17.90
2018-01-27T00:30:49.704Z,17.63
2018-01-27T00:33:17.208Z,18.13
2018-01-27T00:35:44.748Z,20.27
2018-01-27T00:38:12.261Z,18.83
2018-01-27T00:40:40.568Z,18.55
2018-01-27T00:43:08.071Z,19.75
2018-01-27T00:45:35.589Z,19.13
2018-01-27T00:48:03.135Z,18.10
2018-01-27T00:50:30.671Z,18.50
2018-01-27T00:52:58.236Z,19.30
2018-01-27T00:55:26.528Z,18.97
2018-01-27T00:57:54.048Z,18.53
2018-01-27T01:00:21.595Z,20.83
2018-01-27T01:02:49.124Z,21.57
2018-01-27T01:05:17.440Z,23.33
2018-01-27T01:07:44.975Z,22.53
2018-01-27T01:10:12.490Z,22.47
2018-01-27T01:12:40.016Z,20.77
2018-01-27T01:15:07.514Z,21.90
2018-01-27T01:17:35.028Z,21.73
2018-01-27T01:20:03.492Z,20.63
2018-01-27T01:22:30.992Z,20.67
2018-01-27T01:24:59.276Z,22.60
2018-01-27T01:27:27.569Z,23.43
2018-01-27T01:29:55.171Z,22.20
2018-01-27T01:32:22.701Z,23.23
2018-01-27T01:34:50.196Z,22.07
2018-01-27T01:37:17.723Z,24.53
2018-01-27T01:39:45.231Z,22.70
2018-01-27T01:42:19.212Z,23.13
2018-01-27T01:44:46.736Z,21.35
2018-01-27T01:47:14.244Z,20.73
2018-01-27T01:49:41.799Z,22.17
2018-01-27T01:52:09.327Z,22.10
2018-01-27T01:54:36.828Z,23.73
2018-01-27T01:57:04.377Z,23.50
2018-01-27T01:59:31.884Z,24.10
2018-01-27T02:01:59.414Z,23.08
2018-01-27T02:04:27.674Z,24.13
2018-01-27T02:06:55.224Z,23.43
2018-01-27T02:09:22.714Z,22.37
2018-01-27T02:11:50.985Z,20.70
2018-01-27T02:14:19.307Z,20.00
2018-01-27T02:16:46.843Z,20.73
2018-01-27T02:19:14.366Z,21.23
2018-01-27T02:21:41.874Z,21.13
2018-01-27T02:24:09.427Z,25.00
2018-01-27T02:26:36.947Z,25.43
2018-01-27T02:29:05.244Z,23.83
2018-01-27T02:31:32.757Z,22.50
2018-01-27T02:34:00.266Z,21.48
2018-01-27T02:36:27.803Z,22.90
2018-01-27T02:38:56.098Z,21.30
2018-01-27T02:41:24.404Z,20.73
2018-01-27T02:43:51.932Z,20.87
2018-01-27T02:46:19.435Z,21.20
2018-01-27T02:48:46.959Z,21.17
2018-01-27T02:51:14.459Z,22.50
2018-01-27T02:53:41.987Z,23.23
2018-01-27T02:56:09.499Z,23.13
2018-01-27T02:58:37.022Z,22.93
2018-01-27T03:01:04.534Z,19.93
2018-01-27T03:03:32.828Z,21.67
2018-01-27T03:06:00.363Z,19.60
2018-01-27T03:08:28.643Z,20.57
2018-01-27T03:10:56.916Z,20.20
2018-01-27T03:13:25.207Z,20.23
2018-01-27T03:15:52.713Z,19.87
2018-01-27T03:18:20.239Z,19.40
2018-01-27T03:20:47.744Z,19.60
2018-01-27T03:23:15.279Z,18.07
2018-01-27T03:25:42.781Z,19.07
2018-01-27T03:28:11.056Z,20.67
2018-01-27T03:30:39.346Z,20.80
2018-01-27T03:33:07.681Z,19.70
2018-01-27T03:35:35.198Z,18.30
2018-01-27T03:38:02.731Z,18.30
2018-01-27T03:40:31.024Z,19.23
2018-01-27T03:42:58.541Z,20.03
2018-01-27T03:45:26.067Z,18.90
2018-01-27T03:47:53.570Z,17.90
2018-01-27T03:50:21.082Z,18.63
2018-01-27T03:52:48.594Z,18.07
2018-01-27T03:55:16.898Z,18.80
2018-01-27T03:57:44.432Z,17.90
2018-01-27T04:00:12.728Z,18.87
2018-01-27T04:02:40.220Z,20.50
2018-01-27T04:05:07.743Z,18.97
2018-01-27T04:07:35.246Z,20.90
2018-01-27T04:10:02.773Z,19.80
2018-01-27T04:12:30.275Z,18.83
2018-01-27T04:14:57.809Z,19.40
2018-01-27T04:17:25.322Z,20.25
2018-01-27T04:19:53.598Z,19.77
2018-01-27T04:22:21.909Z,19.00
2018-01-27T04:24:49.445Z,18.80
2018-01-27T04:27:16.980Z,20.50
2018-01-27T04:29:44.478Z,19.73
2018-01-27T04:32:12.007Z,19.97
2018-01-27T04:34:40.305Z,19.27
2018-01-27T04:37:07.840Z,20.27
2018-01-27T04:39:36.131Z,20.40
2018-01-27T04:42:03.659Z,19.17
2018-01-27T04:44:31.194Z,19.27
2018-01-27T04:46:58.754Z,18.20
2018-01-27T04:49:26.284Z,19.10
2018-01-27T04:51:53.778Z,17.60
2018-01-27T04:54:21.308Z,18.80
2018-01-27T04:56:48.807Z,18.80
2018-01-27T04:59:16.346Z,19.12
2018-01-27T05:01:43.841Z,20.07
2018-01-27T05:04:12.156Z,20.13
2018-01-27T05:06:39.728Z,19.77
2018-01-27T05:09:07.274Z,19.27
2018-01-27T05:11:34.807Z,18.50
2018-01-27T05:14:03.081Z,17.77
2018-01-27T05:16:31.372Z,21.17
2018-01-27T05:18:58.897Z,22.00
2018-01-27T05:21:26.404Z,23.93
2018-01-27T05:23:53.923Z,25.23
2018-01-27T05:26:22.206Z,26.57
2018-01-27T05:28:50.490Z,25.10
2018-01-27T05:31:18.790Z,24.60
2018-01-27T05:33:46.293Z,24.57
2018-01-27T05:36:13.823Z,25.20
2018-01-27T05:38:42.110Z,25.60
2018-01-27T05:41:09.613Z,26.70
2018-01-27T05:43:37.921Z,25.70
2018-01-27T05:46:05.427Z,25.40
2018-01-27T05:48:32.980Z,26.83
2018-01-27T05:51:00.496Z,27.50
2018-01-27T05:53:28.006Z,26.80
2018-01-27T05:55:55.533Z,27.50
2018-01-27T05:58:23.060Z,28.12
2018-01-27T06:00:50.594Z,29.37
2018-01-27T06:03:18.891Z,28.27
2018-01-27T06:05:46.445Z,28.55
2018-01-27T06:08:13.975Z,28.67
2018-01-27T06:10:41.492Z,27.98
2018-01-27T06:13:09.032Z,30.03
2018-01-27T06:15:36.539Z,30.70
2018-01-27T06:18:04.078Z,29.52
2018-01-27T06:20:31.587Z,28.33
2018-01-27T06:22:59.092Z,29.42
2018-01-27T06:25:26.639Z,29.73
2018-01-27T06:27:54.152Z,28.52
2018-01-27T06:30:22.449Z,29.05
2018-01-27T06:32:49.976Z,27.80
2018-01-27T06:35:18.277Z,28.40
2018-01-27T06:37:45.843Z,28.90
2018-01-27T06:40:13.368Z,28.90
2018-01-27T06:42:40.935Z,27.17
2018-01-27T06:45:09.216Z,29.20
2018-01-27T06:47:37.493Z,28.15
2018-01-27T06:50:05.802Z,27.97
2018-01-27T06:52:33.342Z,27.33
2018-01-27T06:55:00.876Z,28.90
2018-01-27T06:57:29.165Z,29.42
2018-01-27T06:59:57.472Z,28.33
2018-01-27T07:02:25.794Z,30.23
2018-01-27T07:04:53.299Z,29.25
2018-01-27T07:07:20.842Z,28.60
2018-01-27T07:09:49.162Z,28.95
2018-01-27T07:12:16.681Z,27.02
2018-01-27T07:14:45.003Z,29.42
2018-01-27T07:17:12.536Z,29.50
2018-01-27T07:19:40.057Z,28.75
2018-01-27T07:22:08.354Z,28.73
2018-01-27T07:24:36.661Z,30.05
2018-01-27T07:27:04.191Z,27.73
2018-01-27T07:29:31.716Z,28.58
2018-01-27T07:31:59.239Z,28.35
2018-01-27T07:34:26.765Z,29.63
2018-01-27T07:36:55.087Z,27.80
2018-01-27T07:39:22.612Z,30.70
2018-01-27T07:41:50.167Z,29.58
2018-01-27T07:44:17.686Z,31.02
2018-01-27T07:46:45.227Z,31.27
2018-01-27T07:49:12.734Z,30.23
2018-01-27T07:51:40.271Z,28.98
2018-01-27T07:54:07.828Z,27.77
2018-01-27T07:56:35.340Z,35.80
2018-01-27T07:59:02.859Z,32.03
2018-01-27T08:01:31.181Z,27.67
2018-01-27T08:03:58.718Z,29.95
2018-01-27T08:06:26.227Z,27.40
2018-01-27T08:08:53.787Z,32.70
2018-01-27T08:11:21.291Z,32.70
2018-01-27T08:13:48.815Z,35.10
2018-01-27T08:16:16.336Z,33.40
2018-01-27T08:18:43.855Z,32.33
2018-01-27T08:21:12.142Z,32.10
2018-01-27T08:23:39.696Z,32.13
2018-01-27T08:26:07.988Z,30.50
2018-01-27T08:28:35.524Z,27.83
2018-01-27T08:31:03.804Z,27.30
2018-01-27T08:33:32.119Z,26.13
2018-01-27T08:35:59.644Z,25.88
2018-01-27T08:38:27.295Z,25.55
2018-01-27T08:40:55.589Z,23.60
2018-01-27T08:43:23.113Z,25.42
2018-01-27T08:45:50.664Z,22.90
2018-01-27T08:48:18.201Z,24.80
2018-01-27T08:50:45.705Z,22.73
2018-01-27T08:53:14.018Z,23.20
2018-01-27T08:55:42.388Z,23.33
2018-01-27T08:58:09.906Z,25.02
2018-01-27T09:00:37.443Z,24.85
2018-01-27T09:03:04.986Z,23.20
2018-01-27T09:05:32.520Z,23.80
2018-01-27T09:08:00.081Z,23.60
2018-01-27T09:10:27.596Z,22.73
2018-01-27T09:12:55.155Z,22.93
2018-01-27T09:18:10.709Z,23.37
2018-01-27T09:20:38.232Z,21.80
2018-01-27T09:23:06.523Z,22.10
2018-01-27T09:25:34.049Z,24.03
2018-01-27T09:28:02.378Z,22.93
2018-01-27T09:30:29.910Z,23.83
2018-01-27T09:32:58.267Z,23.90
2018-01-27T09:35:25.799Z,23.63
2018-01-27T09:37:53.351Z,24.80
2018-01-27T09:40:20.888Z,33.17
2018-01-27T09:42:48.425Z,25.05
2018-01-27T09:45:15.981Z,24.63
2018-01-27T09:47:43.507Z,23.20
2018-01-27T09:50:11.033Z,23.53
2018-01-27T09:52:38.547Z,24.07
2018-01-27T09:55:06.118Z,22.00
2018-01-27T09:57:34.459Z,23.27
2018-01-27T10:00:02.018Z,22.77
2018-01-27T10:02:30.234Z,21.93
2018-01-27T10:04:57.774Z,23.35
2018-01-27T10:07:26.084Z,23.50
2018-01-27T10:09:53.633Z,24.63
2018-01-27T10:12:21.154Z,23.57
2018-01-27T10:14:48.735Z,24.33
2018-01-27T10:17:17.040Z,22.10
2018-01-27T10:19:44.561Z,23.12
2018-01-27T10:22:12.860Z,22.90
2018-01-27T10:24:40.411Z,20.70
2018-01-27T10:27:08.710Z,21.40
2018-01-27T10:29:36.276Z,21.00
2018-01-27T10:32:03.834Z,20.50
2018-01-27T10:34:31.393Z,19.37
2018-01-27T10:36:58.939Z,18.60
2018-01-27T10:39:26.483Z,18.03
2018-01-27T10:41:54.805Z,20.27
2018-01-27T10:44:25.156Z,18.37
2018-01-27T10:46:52.641Z,21.53
2018-01-27T10:49:20.971Z,17.90
2018-01-27T10:51:48.504Z,19.10
2018-01-27T10:54:16.065Z,19.90
2018-01-27T10:56:44.436Z,20.27
2018-01-27T10:59:11.983Z,19.57
2018-01-27T11:01:39.482Z,20.30
2018-01-27T11:04:08.644Z,20.40
2018-01-27T11:06:36.180Z,19.00
2018-01-27T11:09:04.468Z,19.73
2018-01-27T11:11:32.059Z,18.43
2018-01-27T11:14:00.366Z,20.17
2018-01-27T11:16:33.503Z,18.77
2018-01-27T11:19:01.066Z,18.43
2018-01-27T11:21:28.595Z,20.23
2018-01-27T11:23:56.887Z,19.67
2018-01-27T11:26:25.163Z,17.80
2018-01-27T11:28:53.494Z,16.80
2018-01-27T11:31:21.032Z,18.63
2018-01-27T11:33:48.562Z,18.87
2018-01-27T11:36:16.065Z,20.43
2018-01-27T11:38:43.601Z,20.53
2018-01-27T11:41:11.102Z,18.93
2018-01-27T11:43:38.634Z,21.10
2018-01-27T11:46:06.165Z,19.57
2018-01-27T11:48:33.719Z,19.40
2018-01-27T11:51:01.241Z,20.60
2018-01-27T11:53:28.785Z,20.50
2018-01-27T11:55:56.292Z,21.17
2018-01-27T11:58:24.592Z,20.77
2018-01-27T12:00:52.103Z,19.37
2018-01-27T12:03:19.636Z,21.50
2018-01-27T12:05:47.167Z,21.80
2018-01-27T12:08:14.675Z,20.67
2018-01-27T12:10:42.237Z,20.93
2018-01-27T12:13:09.784Z,21.37
2018-01-27T12:15:37.295Z,21.60
2018-01-27T12:18:04.826Z,21.00
2018-01-27T12:20:33.124Z,22.73
2018-01-27T12:23:00.671Z,21.23
2018-01-27T12:25:28.961Z,21.70
2018-01-27T12:27:56.482Z,22.73
2018-01-27T12:30:24.007Z,23.17
2018-01-27T12:32:51.663Z,21.67
2018-01-27T12:35:19.174Z,22.03
2018-01-27T12:37:47.450Z,22.10
2018-01-27T12:40:15.749Z,21.57
2018-01-27T12:42:43.263Z,21.80
2018-01-27T12:45:10.802Z,23.33
2018-01-27T12:47:38.343Z,23.97
2018-01-27T12:50:05.973Z,23.40
2018-01-27T12:52:33.521Z,22.47
2018-01-27T12:55:01.813Z,23.97
2018-01-27T12:57:29.345Z,21.93
2018-01-27T12:59:56.850Z,21.57
2018-01-27T13:02:25.186Z,21.07
2018-01-27T13:04:53.510Z,20.70
2018-01-27T13:07:20.999Z,20.77
2018-01-27T13:09:48.534Z,20.90
2018-01-27T13:12:16.085Z,20.93
2018-01-27T13:14:43.624Z,22.45
2018-01-27T13:17:11.136Z,22.97
2018-01-27T13:19:38.682Z,21.80
2018-01-27T13:22:06.193Z,23.00
2018-01-27T13:24:34.538Z,21.63
2018-01-27T13:27:02.093Z,21.40
2018-01-27T13:29:29.623Z,20.93
2018-01-27T13:31:57.168Z,21.10
2018-01-27T13:34:24.687Z,21.30
2018-01-27T13:36:53.022Z,20.30
2018-01-27T13:39:20.526Z,25.03
2018-01-27T13:41:48.845Z,23.20
2018-01-27T13:44:16.350Z,25.07
2018-01-27T13:46:43.900Z,23.97
2018-01-27T13:49:11.406Z,23.73
2018-01-27T13:51:38.949Z,22.62
2018-01-27T13:54:06.554Z,23.58
2018-01-27T13:56:34.088Z,23.40
2018-01-27T13:59:01.616Z,22.10
2018-01-27T14:01:29.942Z,24.85
2018-01-27T14:03:57.466Z,21.08
2018-01-27T14:06:25.036Z,21.25
2018-01-27T14:08:52.576Z,20.33
2018-01-27T14:11:20.858Z,19.20
2018-01-27T14:13:48.411Z,19.75
2018-01-27T14:16:15.962Z,19.00
2018-01-27T14:18:44.261Z,21.57
2018-01-27T14:21:11.772Z,20.92
2018-01-27T14:23:39.305Z,22.63
2018-01-27T14:26:06.859Z,23.67
2018-01-27T14:28:34.383Z,23.07
2018-01-27T14:31:02.700Z,21.97
2018-01-27T14:33:30.262Z,21.50
2018-01-27T14:35:57.825Z,20.70
2018-01-27T14:38:25.330Z,21.10
2018-01-27T14:40:52.849Z,19.70
2018-01-27T14:43:20.399Z,21.77
2018-01-27T14:45:47.920Z,19.20
2018-01-27T14:48:16.216Z,20.40
2018-01-27T14:50:43.752Z,20.53
2018-01-27T14:53:12.086Z,20.10
2018-01-27T14:55:39.621Z,20.67
2018-01-27T14:58:07.131Z,20.70
2018-01-27T15:00:34.665Z,21.20
2018-01-27T15:03:02.176Z,20.50
2018-01-27T15:05:29.707Z,21.40
2018-01-27T15:07:58.000Z,20.93
2018-01-27T15:10:26.281Z,21.30
2018-01-27T15:12:53.817Z,21.35
2018-01-27T15:15:22.145Z,23.98
2018-01-27T15:17:49.651Z,24.10
2018-01-27T15:20:17.216Z,23.37
2018-01-27T15:22:44.731Z,25.17
2018-01-27T15:25:12.230Z,23.73
2018-01-27T15:27:39.787Z,24.27
2018-01-27T15:30:07.351Z,23.47
2018-01-27T15:32:34.892Z,22.70
2018-01-27T15:35:02.468Z,23.60
2018-01-27T15:37:29.977Z,23.80
2018-01-27T15:39:57.510Z,22.07
2018-01-27T15:42:25.078Z,23.27
2018-01-27T15:44:52.946Z,21.17
2018-01-27T15:47:20.561Z,21.57
2018-01-27T15:49:48.092Z,21.80
2018-01-27T15:52:15.621Z,22.23
2018-01-27T15:54:43.184Z,22.53
2018-01-27T15:57:10.718Z,22.07
2018-01-27T15:59:39.048Z,25.03
2018-01-27T16:02:06.575Z,24.63
2018-01-27T16:04:34.585Z,25.35
2018-01-27T16:07:02.201Z,25.30
2018-01-27T16:09:29.747Z,25.43
2018-01-27T16:11:58.049Z,27.03
2018-01-27T16:14:25.568Z,25.27
2018-01-27T16:16:53.132Z,24.23
2018-01-27T16:19:21.420Z,24.63
2018-01-27T16:21:49.715Z,27.77
2018-01-27T16:24:17.249Z,28.08
2018-01-27T16:26:45.554Z,28.15
2018-01-27T16:29:13.083Z,28.02
2018-01-27T16:31:41.814Z,26.30
2018-01-27T16:34:09.356Z,27.70
2018-01-27T16:36:36.892Z,24.98
2018-01-27T16:39:05.809Z,25.80
2018-01-27T16:41:33.369Z,23.15
2018-01-27T16:44:00.887Z,24.83
2018-01-27T16:46:28.409Z,23.45
2018-01-27T16:48:55.965Z,21.98
2018-01-27T16:51:23.530Z,24.48
2018-01-27T16:53:51.090Z,24.33
2018-01-27T16:56:18.648Z,25.15
2018-01-27T16:58:46.205Z,24.93
2018-01-27T17:01:13.754Z,22.48
2018-01-27T17:03:41.286Z,22.52
2018-01-27T17:06:08.822Z,22.73
2018-01-27T17:08:37.223Z,22.25
2018-01-27T17:11:04.746Z,23.77
2018-01-27T17:13:32.299Z,26.33
2018-01-27T17:15:59.843Z,25.10
2018-01-27T17:18:27.557Z,26.00
2018-01-27T17:20:55.133Z,26.60
2018-01-27T17:23:22.686Z,26.30
2018-01-27T17:25:50.245Z,25.43
2018-01-27T17:28:17.756Z,27.63
2018-01-27T17:30:45.304Z,26.75
2018-01-27T17:33:12.814Z,25.73
2018-01-27T17:35:40.346Z,26.00
2018-01-27T17:38:07.883Z,27.50
2018-01-27T17:40:35.455Z,26.97
2018-01-27T17:43:02.985Z,24.73
2018-01-27T17:45:30.559Z,38.20
2018-01-27T17:47:58.098Z,31.90
2018-01-27T17:50:25.625Z,27.70
2018-01-27T17:52:53.195Z,27.47
2018-01-27T17:55:20.745Z,45.60
2018-01-27T17:57:49.029Z,33.70
2018-01-27T18:00:16.573Z,33.72
2018-01-27T18:02:44.882Z,29.40
2018-01-27T18:05:12.415Z,28.67
2018-01-27T18:07:39.939Z,28.20
2018-01-27T18:10:07.572Z,30.50
2018-01-27T18:12:35.147Z,27.90
2018-01-27T18:15:02.732Z,29.40
2018-01-27T18:17:30.275Z,32.53
2018-01-27T18:19:58.036Z,31.15
2018-01-27T18:22:25.583Z,30.52
2018-01-27T18:24:53.152Z,31.12
2018-01-27T18:27:20.684Z,27.87
2018-01-27T18:29:48.271Z,32.43
2018-01-27T18:32:15.820Z,29.45
2018-01-27T18:34:43.361Z,33.55
2018-01-27T18:37:10.900Z,29.50
2018-01-27T18:39:38.491Z,28.62
2018-01-27T18:42:06.028Z,32.55
2018-01-27T18:44:33.582Z,28.48
2018-01-27T18:47:01.165Z,30.40
2018-01-27T18:49:28.863Z,29.10
2018-01-27T18:51:56.453Z,29.55
2018-01-27T18:54:24.149Z,29.70
2018-01-27T18:56:51.862Z,27.90
2018-01-27T18:59:19.452Z,27.13
2018-01-27T19:01:46.998Z,27.70
2018-01-27T19:04:14.569Z,28.38
2018-01-27T19:06:42.227Z,30.13
2018-01-27T19:09:09.950Z,29.70
2018-01-27T19:11:38.363Z,30.85
2018-01-27T19:14:06.168Z,31.45
2018-01-27T19:16:33.737Z,34.17
2018-01-27T19:19:01.488Z,34.00
2018-01-27T19:21:29.175Z,35.20
2018-01-27T19:23:56.765Z,30.12
2018-01-27T19:26:25.616Z,28.67
2018-01-27T19:28:53.321Z,25.52
2018-01-27T19:31:20.968Z,25.50
2018-01-27T19:33:49.376Z,27.33
2018-01-27T19:36:16.921Z,29.05
2018-01-27T19:38:45.066Z,31.50
2018-01-27T19:41:12.631Z,26.65
2018-01-27T19:43:40.274Z,23.70
2018-01-27T19:46:07.872Z,27.83
2018-01-27T19:48:36.220Z,28.95
2018-01-27T19:51:04.033Z,29.70
2018-01-27T19:53:32.204Z,28.58
2018-01-27T19:56:01.209Z,29.67
2018-01-27T19:58:28.847Z,32.88
2018-01-27T20:00:57.302Z,38.67
2018-01-27T20:03:25.097Z,33.38
2018-01-27T20:05:52.652Z,34.08
2018-01-27T20:08:21.349Z,38.65
2018-01-27T20:10:49.488Z,34.03
2018-01-27T20:13:17.211Z,32.45
2018-01-27T20:15:44.775Z,46.33
2018-01-27T20:18:12.496Z,52.55
2018-01-27T20:20:41.733Z,56.03
2018-01-27T20:23:10.262Z,51.53
2018-01-27T20:25:38.277Z,46.90
2018-01-27T20:28:05.908Z,51.20
2018-01-27T20:30:34.300Z,49.22
2018-01-27T20:33:02.126Z,39.03
2018-01-27T20:35:30.735Z,39.45
2018-01-27T20:37:58.919Z,71.70
2018-01-27T20:40:26.589Z,36.53
2018-01-27T20:42:54.099Z,33.08
2018-01-27T20:45:22.852Z,38.72
2018-01-27T20:47:51.271Z,36.03
2018-01-27T20:50:19.528Z,35.50
2018-01-27T20:52:47.204Z,36.88
2018-01-27T20:55:14.782Z,38.50
2018-01-27T20:57:43.373Z,43.97
2018-01-27T21:00:12.342Z,46.92
2018-01-27T21:02:40.618Z,39.25
2018-01-27T21:05:08.522Z,45.80
2018-01-27T21:07:36.107Z,45.45
2018-01-27T21:10:03.924Z,39.90
2018-01-27T21:12:32.928Z,41.85
2018-01-27T21:15:01.960Z,41.37
2018-01-27T21:17:30.285Z,41.45
2018-01-27T21:19:57.972Z,41.55
2018-01-27T21:22:26.326Z,41.20
2018-01-27T21:24:54.005Z,51.42
2018-01-27T21:27:22.807Z,45.70
2018-01-27T21:29:50.960Z,53.67
2018-01-27T21:32:19.493Z,59.47
2018-01-27T21:34:47.052Z,46.70
2018-01-27T21:37:15.534Z,48.33
2018-01-27T21:39:44.407Z,43.78
2018-01-27T21:42:12.518Z,49.78
2018-01-27T21:44:40.508Z,47.60
2018-01-27T21:47:08.124Z,51.58
2018-01-27T21:49:35.959Z,48.90
2018-01-27T21:52:04.279Z,41.08
2018-01-27T21:54:31.848Z,50.35
2018-01-27T21:56:59.614Z,45.03
2018-01-27T21:59:27.203Z,49.63
2018-01-27T22:01:55.483Z,44.08
2018-01-27T22:04:23.806Z,49.38
2018-01-27T22:06:51.403Z,50.08
2018-01-27T22:09:18.913Z,44.47
2018-01-27T22:11:46.438Z,44.50
2018-01-27T22:14:14.759Z,48.30
2018-01-27T22:16:42.272Z,44.22
2018-01-27T22:19:10.587Z,41.15
2018-01-27T22:21:38.117Z,43.67
2018-01-27T22:24:05.663Z,45.58
2018-01-27T22:26:34.004Z,43.40
2018-01-27T22:29:01.533Z,52.78
2018-01-27T22:31:29.067Z,48.42
2018-01-27T22:33:57.368Z,53.45
2018-01-27T22:36:24.912Z,52.22
2018-01-27T22:38:53.205Z,56.13
2018-01-27T22:41:20.757Z,46.60
2018-01-27T22:43:48.304Z,52.62
2018-01-27T22:46:16.608Z,51.08
2018-01-27T22:48:44.181Z,50.58
2018-01-27T22:51:11.702Z,49.15
2018-01-27T22:53:39.986Z,48.80
2018-01-27T22:56:07.530Z,51.13
2018-01-27T22:58:35.811Z,51.78
2018-01-27T23:01:09.822Z,47.67
2018-01-27T23:03:38.143Z,45.75
2018-01-27T23:06:05.658Z,46.42
2018-01-27T23:08:33.220Z,48.60
2018-01-27T23:11:01.532Z,46.03
2018-01-27T23:13:29.058Z,48.58
2018-01-27T23:15:57.373Z,49.22
2018-01-27T23:18:24.928Z,51.75
2018-01-27T23:20:52.449Z,51.10
2018-01-27T23:23:20.847Z,50.67
2018-01-27T23:25:48.363Z,46.90
2018-01-27T23:28:15.896Z,48.45
2018-01-27T23:30:43.452Z,48.20
2018-01-27T23:33:10.950Z,49.35
2018-01-27T23:35:39.273Z,50.75
2018-01-27T23:38:06.797Z,51.05
2018-01-27T23:40:34.326Z,54.97
2018-01-27T23:43:01.905Z,55.17
2018-01-27T23:45:30.224Z,58.25
2018-01-27T23:47:57.743Z,54.92
2018-01-27T23:50:26.106Z,51.45
2018-01-27T23:52:53.636Z,48.05
2018-01-27T23:55:21.156Z,52.42
2018-01-27T23:57:48.710Z,49.13
